sensor_id;sensor_type;location;lat;lon;timestamp;P1;durP1;ratioP1;P2;durP2;ratioP2
22711;SDS011;11523;50.390;8.072;2023-05-10T00:00:08;0.82;;;0.60;;
22711;SDS011;11523;50.390;8.072;2023-05-10T00:02:34;2.72;;;0.60;;
22711;SDS011;11523;50.390;8.072;2023-05-10T00:05:00;0.77;;;0.50;;
22711;SDS011;11523;50.390;8.072;2023-05-10T00:07:26;2.25;;;0.50;;
22711;SDS011;11523;50.390;8.072;2023-05-10T00:09:52;0.70;;;0.50;;
22711;SDS011;11523;50.390;8.072;2023-05-10T00:12:18;0.82;;;0.50;;
22711;SDS011;11523;50.390;8.072;2023-05-10T00:14:44;1.98;;;0.40;;
22711;SDS011;11523;50.390;8.072;2023-05-10T00:17:10;1.20;;;0.38;;
22711;SDS011;11523;50.390;8.072;2023-05-10T00:19:36;0.40;;;0.40;;
22711;SDS011;11523;50.390;8.072;2023-05-10T00:22:02;0.40;;;0.40;;
22711;SDS011;11523;50.390;8.072;2023-05-10T00:24:28;0.95;;;0.30;;
22711;SDS011;11523;50.390;8.072;2023-05-10T00:26:54;2.78;;;0.57;;
22711;SDS011;11523;50.390;8.072;2023-05-10T00:29:20;3.22;;;0.40;;
22711;SDS011;11523;50.390;8.072;2023-05-10T00:31:46;0.60;;;0.40;;
22711;SDS011;11523;50.390;8.072;2023-05-10T00:34:11;1.52;;;0.45;;
22711;SDS011;11523;50.390;8.072;2023-05-10T00:36:37;0.60;;;0.60;;
22711;SDS011;11523;50.390;8.072;2023-05-10T00:39:03;0.77;;;0.77;;
22711;SDS011;11523;50.390;8.072;2023-05-10T00:41:29;3.60;;;0.47;;
22711;SDS011;11523;50.390;8.072;2023-05-10T00:43:58;0.82;;;0.50;;
22711;SDS011;11523;50.390;8.072;2023-05-10T00:46:24;2.50;;;0.30;;
22711;SDS011;11523;50.390;8.072;2023-05-10T00:48:50;0.63;;;0.50;;
22711;SDS011;11523;50.390;8.072;2023-05-10T00:51:16;4.15;;;0.70;;
22711;SDS011;11523;50.390;8.072;2023-05-10T00:53:43;3.53;;;0.65;;
22711;SDS011;11523;50.390;8.072;2023-05-10T00:56:09;0.55;;;0.55;;
22711;SDS011;11523;50.390;8.072;2023-05-10T00:58:35;2.50;;;0.50;;
22711;SDS011;11523;50.390;8.072;2023-05-10T01:01:01;4.10;;;0.57;;
22711;SDS011;11523;50.390;8.072;2023-05-10T01:03:27;0.30;;;0.30;;
22711;SDS011;11523;50.390;8.072;2023-05-10T01:05:53;1.35;;;0.30;;
22711;SDS011;11523;50.390;8.072;2023-05-10T01:08:19;0.70;;;0.60;;
22711;SDS011;11523;50.390;8.072;2023-05-10T01:10:45;1.75;;;0.60;;
22711;SDS011;11523;50.390;8.072;2023-05-10T01:13:13;0.40;;;0.40;;
22711;SDS011;11523;50.390;8.072;2023-05-10T01:15:44;1.58;;;0.40;;
22711;SDS011;11523;50.390;8.072;2023-05-10T01:18:11;0.70;;;0.40;;
22711;SDS011;11523;50.390;8.072;2023-05-10T01:20:39;5.85;;;1.00;;
22711;SDS011;11523;50.390;8.072;2023-05-10T01:23:16;0.60;;;0.50;;
22711;SDS011;11523;50.390;8.072;2023-05-10T01:28:45;2.13;;;0.40;;
22711;SDS011;11523;50.390;8.072;2023-05-10T01:31:22;1.00;;;0.60;;
22711;SDS011;11523;50.390;8.072;2023-05-10T01:36:18;3.45;;;0.60;;
22711;SDS011;11523;50.390;8.072;2023-05-10T01:38:51;0.40;;;0.40;;
22711;SDS011;11523;50.390;8.072;2023-05-10T01:46:33;1.05;;;0.50;;
22711;SDS011;11523;50.390;8.072;2023-05-10T01:49:02;0.55;;;0.52;;
22711;SDS011;11523;50.390;8.072;2023-05-10T01:51:31;3.45;;;0.47;;
22711;SDS011;11523;50.390;8.072;2023-05-10T01:54:02;1.55;;;0.40;;
22711;SDS011;11523;50.390;8.072;2023-05-10T01:56:30;1.83;;;0.40;;
22711;SDS011;11523;50.390;8.072;2023-05-10T01:58:57;0.68;;;0.40;;
22711;SDS011;11523;50.390;8.072;2023-05-10T02:01:24;0.80;;;0.50;;
22711;SDS011;11523;50.390;8.072;2023-05-10T02:03:51;2.63;;;0.50;;
22711;SDS011;11523;50.390;8.072;2023-05-10T02:06:18;1.75;;;0.43;;
22711;SDS011;11523;50.390;8.072;2023-05-10T02:08:44;0.50;;;0.50;;
22711;SDS011;11523;50.390;8.072;2023-05-10T02:11:12;1.73;;;0.60;;
22711;SDS011;11523;50.390;8.072;2023-05-10T02:13:38;2.42;;;0.60;;
22711;SDS011;11523;50.390;8.072;2023-05-10T02:16:05;0.38;;;0.38;;
22711;SDS011;11523;50.390;8.072;2023-05-10T02:18:32;4.95;;;0.50;;
22711;SDS011;11523;50.390;8.072;2023-05-10T02:20:59;2.25;;;0.70;;
22711;SDS011;11523;50.390;8.072;2023-05-10T02:23:25;2.00;;;0.40;;
22711;SDS011;11523;50.390;8.072;2023-05-10T02:25:51;2.08;;;0.65;;
22711;SDS011;11523;50.390;8.072;2023-05-10T02:28:18;0.77;;;0.50;;
22711;SDS011;11523;50.390;8.072;2023-05-10T02:30:51;1.00;;;0.50;;
22711;SDS011;11523;50.390;8.072;2023-05-10T02:33:17;1.33;;;0.47;;
22711;SDS011;11523;50.390;8.072;2023-05-10T02:35:44;3.47;;;0.70;;
22711;SDS011;11523;50.390;8.072;2023-05-10T02:38:11;1.80;;;0.43;;
22711;SDS011;11523;50.390;8.072;2023-05-10T02:40:37;0.85;;;0.75;;
22711;SDS011;11523;50.390;8.072;2023-05-10T02:43:03;4.10;;;0.60;;
22711;SDS011;11523;50.390;8.072;2023-05-10T02:45:31;2.40;;;0.60;;
22711;SDS011;11523;50.390;8.072;2023-05-10T02:47:57;2.15;;;0.80;;
22711;SDS011;11523;50.390;8.072;2023-05-10T02:50:25;2.58;;;0.63;;
22711;SDS011;11523;50.390;8.072;2023-05-10T02:52:54;0.75;;;0.73;;
22711;SDS011;11523;50.390;8.072;2023-05-10T02:55:22;2.30;;;0.60;;
22711;SDS011;11523;50.390;8.072;2023-05-10T02:57:52;0.70;;;0.70;;
22711;SDS011;11523;50.390;8.072;2023-05-10T03:00:26;0.80;;;0.60;;
22711;SDS011;11523;50.390;8.072;2023-05-10T03:02:52;0.90;;;0.70;;
22711;SDS011;11523;50.390;8.072;2023-05-10T03:05:18;0.73;;;0.73;;
22711;SDS011;11523;50.390;8.072;2023-05-10T03:07:45;2.40;;;0.73;;
22711;SDS011;11523;50.390;8.072;2023-05-10T03:10:11;2.53;;;0.80;;
22711;SDS011;11523;50.390;8.072;2023-05-10T03:15:23;1.05;;;0.82;;
22711;SDS011;11523;50.390;8.072;2023-05-10T03:20:27;1.98;;;0.90;;
22711;SDS011;11523;50.390;8.072;2023-05-10T03:22:55;1.10;;;1.00;;
22711;SDS011;11523;50.390;8.072;2023-05-10T03:25:21;1.17;;;0.80;;
22711;SDS011;11523;50.390;8.072;2023-05-10T03:27:48;2.17;;;1.17;;
22711;SDS011;11523;50.390;8.072;2023-05-10T03:30:14;2.03;;;1.00;;
22711;SDS011;11523;50.390;8.072;2023-05-10T03:32:41;1.20;;;0.95;;
22711;SDS011;11523;50.390;8.072;2023-05-10T03:35:10;1.08;;;0.98;;
22711;SDS011;11523;50.390;8.072;2023-05-10T03:37:37;1.17;;;0.90;;
22711;SDS011;11523;50.390;8.072;2023-05-10T03:40:03;1.35;;;0.88;;
22711;SDS011;11523;50.390;8.072;2023-05-10T03:42:29;3.75;;;0.85;;
22711;SDS011;11523;50.390;8.072;2023-05-10T03:44:55;1.08;;;0.63;;
22711;SDS011;11523;50.390;8.072;2023-05-10T03:47:21;0.93;;;0.77;;
22711;SDS011;11523;50.390;8.072;2023-05-10T03:49:47;2.53;;;0.80;;
22711;SDS011;11523;50.390;8.072;2023-05-10T03:52:13;0.63;;;0.63;;
22711;SDS011;11523;50.390;8.072;2023-05-10T03:54:39;0.95;;;0.90;;
22711;SDS011;11523;50.390;8.072;2023-05-10T03:57:05;1.15;;;0.75;;
22711;SDS011;11523;50.390;8.072;2023-05-10T03:59:31;1.95;;;0.80;;
22711;SDS011;11523;50.390;8.072;2023-05-10T04:01:57;2.85;;;0.90;;
22711;SDS011;11523;50.390;8.072;2023-05-10T04:04:22;1.08;;;0.82;;
22711;SDS011;11523;50.390;8.072;2023-05-10T04:06:49;2.40;;;1.02;;
22711;SDS011;11523;50.390;8.072;2023-05-10T04:09:15;2.03;;;0.70;;
22711;SDS011;11523;50.390;8.072;2023-05-10T04:11:42;0.80;;;0.80;;
22711;SDS011;11523;50.390;8.072;2023-05-10T04:14:08;4.30;;;0.93;;
22711;SDS011;11523;50.390;8.072;2023-05-10T04:16:33;3.28;;;0.65;;
22711;SDS011;11523;50.390;8.072;2023-05-10T04:18:59;2.28;;;0.88;;
22711;SDS011;11523;50.390;8.072;2023-05-10T04:21:25;2.65;;;0.80;;
22711;SDS011;11523;50.390;8.072;2023-05-10T04:23:51;2.20;;;0.80;;
22711;SDS011;11523;50.390;8.072;2023-05-10T04:26:17;1.73;;;0.70;;
22711;SDS011;11523;50.390;8.072;2023-05-10T04:28:43;2.30;;;0.70;;
22711;SDS011;11523;50.390;8.072;2023-05-10T04:31:10;1.63;;;0.90;;
22711;SDS011;11523;50.390;8.072;2023-05-10T04:33:36;0.70;;;0.70;;
22711;SDS011;11523;50.390;8.072;2023-05-10T04:36:02;1.13;;;0.80;;
22711;SDS011;11523;50.390;8.072;2023-05-10T04:38:28;1.25;;;0.80;;
22711;SDS011;11523;50.390;8.072;2023-05-10T04:41:03;2.67;;;1.05;;
22711;SDS011;11523;50.390;8.072;2023-05-10T04:45:58;1.73;;;0.73;;
22711;SDS011;11523;50.390;8.072;2023-05-10T04:48:24;1.52;;;0.85;;
22711;SDS011;11523;50.390;8.072;2023-05-10T04:50:50;1.08;;;0.88;;
22711;SDS011;11523;50.390;8.072;2023-05-10T04:53:16;3.53;;;1.15;;
22711;SDS011;11523;50.390;8.072;2023-05-10T04:55:42;1.67;;;1.10;;
22711;SDS011;11523;50.390;8.072;2023-05-10T04:58:08;5.88;;;1.50;;
22711;SDS011;11523;50.390;8.072;2023-05-10T05:00:34;1.65;;;1.30;;
22711;SDS011;11523;50.390;8.072;2023-05-10T05:03:00;4.55;;;1.10;;
22711;SDS011;11523;50.390;8.072;2023-05-10T05:05:26;2.65;;;1.20;;
22711;SDS011;11523;50.390;8.072;2023-05-10T05:07:52;2.17;;;1.10;;
22711;SDS011;11523;50.390;8.072;2023-05-10T05:10:18;2.38;;;0.90;;
22711;SDS011;11523;50.390;8.072;2023-05-10T05:12:44;1.10;;;1.00;;
22711;SDS011;11523;50.390;8.072;2023-05-10T05:15:10;1.50;;;1.10;;
22711;SDS011;11523;50.390;8.072;2023-05-10T05:17:36;2.38;;;0.90;;
22711;SDS011;11523;50.390;8.072;2023-05-10T05:20:02;1.10;;;1.00;;
22711;SDS011;11523;50.390;8.072;2023-05-10T05:22:28;3.55;;;1.10;;
22711;SDS011;11523;50.390;8.072;2023-05-10T05:24:55;2.13;;;1.00;;
22711;SDS011;11523;50.390;8.072;2023-05-10T05:27:21;3.20;;;1.20;;
22711;SDS011;11523;50.390;8.072;2023-05-10T05:29:53;1.50;;;0.98;;
22711;SDS011;11523;50.390;8.072;2023-05-10T05:32:19;1.10;;;1.00;;
22711;SDS011;11523;50.390;8.072;2023-05-10T05:34:45;2.10;;;1.10;;
22711;SDS011;11523;50.390;8.072;2023-05-10T05:37:15;1.52;;;1.05;;
22711;SDS011;11523;50.390;8.072;2023-05-10T05:39:41;1.73;;;1.02;;
22711;SDS011;11523;50.390;8.072;2023-05-10T05:42:07;1.65;;;1.20;;
22711;SDS011;11523;50.390;8.072;2023-05-10T05:44:33;1.67;;;1.08;;
22711;SDS011;11523;50.390;8.072;2023-05-10T05:46:59;1.15;;;1.00;;
22711;SDS011;11523;50.390;8.072;2023-05-10T05:49:25;2.05;;;1.30;;
22711;SDS011;11523;50.390;8.072;2023-05-10T05:51:51;1.75;;;1.33;;
22711;SDS011;11523;50.390;8.072;2023-05-10T05:54:17;1.30;;;1.20;;
22711;SDS011;11523;50.390;8.072;2023-05-10T05:56:43;4.38;;;1.48;;
22711;SDS011;11523;50.390;8.072;2023-05-10T05:59:09;3.30;;;1.23;;
22711;SDS011;11523;50.390;8.072;2023-05-10T06:01:35;1.73;;;1.63;;
22711;SDS011;11523;50.390;8.072;2023-05-10T06:04:01;2.17;;;1.85;;
22711;SDS011;11523;50.390;8.072;2023-05-10T06:06:27;2.15;;;1.95;;
22711;SDS011;11523;50.390;8.072;2023-05-10T06:08:53;2.70;;;1.90;;
22711;SDS011;11523;50.390;8.072;2023-05-10T06:11:19;3.45;;;2.03;;
22711;SDS011;11523;50.390;8.072;2023-05-10T06:13:46;3.75;;;2.10;;
22711;SDS011;11523;50.390;8.072;2023-05-10T06:16:12;2.90;;;2.22;;
22711;SDS011;11523;50.390;8.072;2023-05-10T06:18:38;2.88;;;2.05;;
22711;SDS011;11523;50.390;8.072;2023-05-10T06:21:04;3.50;;;1.90;;
22711;SDS011;11523;50.390;8.072;2023-05-10T06:23:30;3.03;;;1.83;;
22711;SDS011;11523;50.390;8.072;2023-05-10T06:25:56;2.83;;;1.90;;
22711;SDS011;11523;50.390;8.072;2023-05-10T06:28:22;2.30;;;2.10;;
22711;SDS011;11523;50.390;8.072;2023-05-10T06:30:48;4.70;;;2.08;;
22711;SDS011;11523;50.390;8.072;2023-05-10T06:33:14;3.08;;;2.13;;
22711;SDS011;11523;50.390;8.072;2023-05-10T06:35:41;3.90;;;2.10;;
22711;SDS011;11523;50.390;8.072;2023-05-10T06:38:06;3.25;;;2.10;;
22711;SDS011;11523;50.390;8.072;2023-05-10T06:40:32;2.80;;;2.13;;
22711;SDS011;11523;50.390;8.072;2023-05-10T06:42:58;5.38;;;2.22;;
22711;SDS011;11523;50.390;8.072;2023-05-10T06:45:24;2.15;;;1.83;;
22711;SDS011;11523;50.390;8.072;2023-05-10T06:47:50;2.55;;;2.08;;
22711;SDS011;11523;50.390;8.072;2023-05-10T06:50:16;5.22;;;2.22;;
22711;SDS011;11523;50.390;8.072;2023-05-10T06:52:42;5.30;;;2.70;;
22711;SDS011;11523;50.390;8.072;2023-05-10T06:55:08;3.95;;;2.35;;
22711;SDS011;11523;50.390;8.072;2023-05-10T06:57:34;3.00;;;2.10;;
22711;SDS011;11523;50.390;8.072;2023-05-10T07:00:00;3.72;;;2.15;;
22711;SDS011;11523;50.390;8.072;2023-05-10T07:02:28;2.92;;;1.85;;
22711;SDS011;11523;50.390;8.072;2023-05-10T07:04:54;4.57;;;2.08;;
22711;SDS011;11523;50.390;8.072;2023-05-10T07:07:20;2.85;;;1.90;;
22711;SDS011;11523;50.390;8.072;2023-05-10T07:09:46;2.97;;;1.85;;
22711;SDS011;11523;50.390;8.072;2023-05-10T07:12:12;6.00;;;1.85;;
22711;SDS011;11523;50.390;8.072;2023-05-10T07:14:38;2.63;;;1.80;;
22711;SDS011;11523;50.390;8.072;2023-05-10T07:17:04;2.97;;;2.00;;
22711;SDS011;11523;50.390;8.072;2023-05-10T07:19:30;3.10;;;2.30;;
22711;SDS011;11523;50.390;8.072;2023-05-10T07:21:57;2.60;;;2.00;;
22711;SDS011;11523;50.390;8.072;2023-05-10T07:24:23;2.47;;;1.60;;
22711;SDS011;11523;50.390;8.072;2023-05-10T07:26:49;2.50;;;2.10;;
22711;SDS011;11523;50.390;8.072;2023-05-10T07:29:15;2.85;;;2.17;;
22711;SDS011;11523;50.390;8.072;2023-05-10T07:31:41;2.28;;;2.10;;
22711;SDS011;11523;50.390;8.072;2023-05-10T07:34:07;4.75;;;2.47;;
22711;SDS011;11523;50.390;8.072;2023-05-10T07:36:34;3.72;;;2.20;;
22711;SDS011;11523;50.390;8.072;2023-05-10T07:39:00;4.75;;;2.22;;
22711;SDS011;11523;50.390;8.072;2023-05-10T07:41:26;6.68;;;2.10;;
22711;SDS011;11523;50.390;8.072;2023-05-10T07:43:52;2.90;;;1.95;;
22711;SDS011;11523;50.390;8.072;2023-05-10T07:46:18;7.05;;;2.20;;
22711;SDS011;11523;50.390;8.072;2023-05-10T07:48:51;4.85;;;2.20;;
22711;SDS011;11523;50.390;8.072;2023-05-10T07:51:17;3.83;;;2.38;;
22711;SDS011;11523;50.390;8.072;2023-05-10T07:53:43;4.32;;;2.20;;
22711;SDS011;11523;50.390;8.072;2023-05-10T07:56:25;2.95;;;1.73;;
22711;SDS011;11523;50.390;8.072;2023-05-10T07:58:54;3.55;;;2.10;;
22711;SDS011;11523;50.390;8.072;2023-05-10T08:01:20;4.65;;;2.20;;
22711;SDS011;11523;50.390;8.072;2023-05-10T08:03:46;7.03;;;2.40;;
22711;SDS011;11523;50.390;8.072;2023-05-10T08:06:13;5.30;;;2.13;;
22711;SDS011;11523;50.390;8.072;2023-05-10T08:08:40;3.20;;;2.10;;
22711;SDS011;11523;50.390;8.072;2023-05-10T08:11:10;7.53;;;2.00;;
22711;SDS011;11523;50.390;8.072;2023-05-10T08:13:36;2.22;;;1.70;;
22711;SDS011;11523;50.390;8.072;2023-05-10T08:16:02;4.32;;;2.58;;
22711;SDS011;11523;50.390;8.072;2023-05-10T08:18:28;3.42;;;2.22;;
22711;SDS011;11523;50.390;8.072;2023-05-10T08:20:54;4.80;;;2.40;;
22711;SDS011;11523;50.390;8.072;2023-05-10T08:23:20;5.32;;;2.30;;
22711;SDS011;11523;50.390;8.072;2023-05-10T08:25:46;4.50;;;2.90;;
22711;SDS011;11523;50.390;8.072;2023-05-10T08:28:12;3.40;;;2.60;;
22711;SDS011;11523;50.390;8.072;2023-05-10T08:30:37;3.35;;;2.78;;
22711;SDS011;11523;50.390;8.072;2023-05-10T08:33:03;4.63;;;2.33;;
22711;SDS011;11523;50.390;8.072;2023-05-10T08:35:29;7.28;;;2.65;;
22711;SDS011;11523;50.390;8.072;2023-05-10T08:37:56;5.10;;;2.40;;
22711;SDS011;11523;50.390;8.072;2023-05-10T08:40:22;3.92;;;2.40;;
22711;SDS011;11523;50.390;8.072;2023-05-10T08:42:51;7.47;;;2.25;;
22711;SDS011;11523;50.390;8.072;2023-05-10T08:45:19;2.47;;;2.10;;
22711;SDS011;11523;50.390;8.072;2023-05-10T08:47:47;7.03;;;2.65;;
22711;SDS011;11523;50.390;8.072;2023-05-10T08:50:19;4.25;;;2.88;;
22711;SDS011;11523;50.390;8.072;2023-05-10T08:52:46;4.53;;;2.70;;
22711;SDS011;11523;50.390;8.072;2023-05-10T08:55:13;4.05;;;2.67;;
22711;SDS011;11523;50.390;8.072;2023-05-10T08:57:39;5.05;;;2.50;;
22711;SDS011;11523;50.390;8.072;2023-05-10T09:00:05;4.15;;;2.10;;
22711;SDS011;11523;50.390;8.072;2023-05-10T09:02:32;3.88;;;2.33;;
22711;SDS011;11523;50.390;8.072;2023-05-10T09:04:59;3.47;;;2.40;;
22711;SDS011;11523;50.390;8.072;2023-05-10T09:07:25;4.53;;;2.20;;
22711;SDS011;11523;50.390;8.072;2023-05-10T09:09:50;2.72;;;2.00;;
22711;SDS011;11523;50.390;8.072;2023-05-10T09:12:17;10.85;;;2.65;;
22711;SDS011;11523;50.390;8.072;2023-05-10T09:14:43;7.00;;;2.10;;
22711;SDS011;11523;50.390;8.072;2023-05-10T09:17:10;2.55;;;1.88;;
22711;SDS011;11523;50.390;8.072;2023-05-10T09:19:36;3.80;;;1.77;;
22711;SDS011;11523;50.390;8.072;2023-05-10T09:22:02;6.13;;;1.95;;
22711;SDS011;11523;50.390;8.072;2023-05-10T09:24:28;4.68;;;1.95;;
22711;SDS011;11523;50.390;8.072;2023-05-10T09:26:54;3.38;;;1.55;;
22711;SDS011;11523;50.390;8.072;2023-05-10T09:29:22;3.35;;;1.88;;
22711;SDS011;11523;50.390;8.072;2023-05-10T09:31:52;5.28;;;1.60;;
22711;SDS011;11523;50.390;8.072;2023-05-10T09:34:28;3.33;;;1.63;;
22711;SDS011;11523;50.390;8.072;2023-05-10T09:36:54;2.42;;;1.20;;
22711;SDS011;11523;50.390;8.072;2023-05-10T09:39:25;2.88;;;1.67;;
22711;SDS011;11523;50.390;8.072;2023-05-10T09:41:55;4.22;;;1.85;;
22711;SDS011;11523;50.390;8.072;2023-05-10T09:44:21;2.88;;;1.67;;
22711;SDS011;11523;50.390;8.072;2023-05-10T09:46:50;2.17;;;1.30;;
22711;SDS011;11523;50.390;8.072;2023-05-10T09:49:17;3.03;;;1.27;;
22711;SDS011;11523;50.390;8.072;2023-05-10T09:51:43;1.58;;;1.40;;
22711;SDS011;11523;50.390;8.072;2023-05-10T09:54:10;3.03;;;1.80;;
22711;SDS011;11523;50.390;8.072;2023-05-10T09:56:36;4.25;;;1.55;;
22711;SDS011;11523;50.390;8.072;2023-05-10T09:59:04;2.08;;;1.27;;
22711;SDS011;11523;50.390;8.072;2023-05-10T10:01:30;3.55;;;1.30;;
22711;SDS011;11523;50.390;8.072;2023-05-10T10:03:57;4.80;;;1.23;;
22711;SDS011;11523;50.390;8.072;2023-05-10T10:06:23;2.55;;;1.25;;
22711;SDS011;11523;50.390;8.072;2023-05-10T10:08:50;0.80;;;0.80;;
22711;SDS011;11523;50.390;8.072;2023-05-10T10:11:16;2.63;;;1.00;;
22711;SDS011;11523;50.390;8.072;2023-05-10T10:13:42;2.05;;;0.90;;
22711;SDS011;11523;50.390;8.072;2023-05-10T10:16:08;2.40;;;1.00;;
22711;SDS011;11523;50.390;8.072;2023-05-10T10:18:35;2.40;;;1.00;;
22711;SDS011;11523;50.390;8.072;2023-05-10T10:21:05;2.75;;;0.95;;
22711;SDS011;11523;50.390;8.072;2023-05-10T10:23:33;2.35;;;0.90;;
22711;SDS011;11523;50.390;8.072;2023-05-10T10:26:00;0.82;;;0.77;;
22711;SDS011;11523;50.390;8.072;2023-05-10T10:31:26;0.80;;;0.70;;
22711;SDS011;11523;50.390;8.072;2023-05-10T10:33:56;1.40;;;0.73;;
22711;SDS011;11523;50.390;8.072;2023-05-10T10:36:24;3.22;;;0.75;;
22711;SDS011;11523;50.390;8.072;2023-05-10T10:41:35;2.58;;;0.68;;
22711;SDS011;11523;50.390;8.072;2023-05-10T10:49:25;6.63;;;1.00;;
22711;SDS011;11523;50.390;8.072;2023-05-10T10:54:36;1.45;;;1.05;;
22711;SDS011;11523;50.390;8.072;2023-05-10T10:57:09;4.05;;;0.80;;
22711;SDS011;11523;50.390;8.072;2023-05-10T10:59:36;1.35;;;0.60;;
22711;SDS011;11523;50.390;8.072;2023-05-10T11:02:07;0.55;;;0.55;;
22711;SDS011;11523;50.390;8.072;2023-05-10T11:04:43;0.70;;;0.70;;
22711;SDS011;11523;50.390;8.072;2023-05-10T11:07:18;0.68;;;0.60;;
22711;SDS011;11523;50.390;8.072;2023-05-10T11:09:48;2.58;;;0.60;;
22711;SDS011;11523;50.390;8.072;2023-05-10T11:12:13;1.65;;;0.88;;
22711;SDS011;11523;50.390;8.072;2023-05-10T11:14:40;1.80;;;0.88;;
22711;SDS011;11523;50.390;8.072;2023-05-10T11:20:06;1.10;;;0.90;;
22711;SDS011;11523;50.390;8.072;2023-05-10T11:22:48;2.53;;;0.75;;
22711;SDS011;11523;50.390;8.072;2023-05-10T11:25:15;1.33;;;1.05;;
22711;SDS011;11523;50.390;8.072;2023-05-10T11:27:41;3.30;;;1.10;;
22711;SDS011;11523;50.390;8.072;2023-05-10T11:30:07;1.98;;;1.10;;
22711;SDS011;11523;50.390;8.072;2023-05-10T11:32:36;1.90;;;0.80;;
22711;SDS011;11523;50.390;8.072;2023-05-10T11:35:09;1.77;;;0.80;;
22711;SDS011;11523;50.390;8.072;2023-05-10T11:37:35;1.90;;;0.80;;
22711;SDS011;11523;50.390;8.072;2023-05-10T11:40:02;2.55;;;0.82;;
22711;SDS011;11523;50.390;8.072;2023-05-10T11:42:28;4.65;;;0.80;;
22711;SDS011;11523;50.390;8.072;2023-05-10T11:44:55;1.38;;;0.85;;
22711;SDS011;11523;50.390;8.072;2023-05-10T11:47:21;1.70;;;0.90;;
22711;SDS011;11523;50.390;8.072;2023-05-10T11:49:47;0.75;;;0.70;;
22711;SDS011;11523;50.390;8.072;2023-05-10T11:52:13;3.20;;;0.80;;
22711;SDS011;11523;50.390;8.072;2023-05-10T11:54:52;5.72;;;2.45;;
22711;SDS011;11523;50.390;8.072;2023-05-10T11:57:19;2.55;;;0.73;;
22711;SDS011;11523;50.390;8.072;2023-05-10T11:59:45;1.38;;;0.80;;
22711;SDS011;11523;50.390;8.072;2023-05-10T12:02:12;1.73;;;0.68;;
22711;SDS011;11523;50.390;8.072;2023-05-10T12:04:38;2.65;;;0.60;;
22711;SDS011;11523;50.390;8.072;2023-05-10T12:07:04;0.82;;;0.73;;
22711;SDS011;11523;50.390;8.072;2023-05-10T12:09:30;0.70;;;0.60;;
22711;SDS011;11523;50.390;8.072;2023-05-10T12:11:56;2.45;;;0.82;;
22711;SDS011;11523;50.390;8.072;2023-05-10T12:14:22;2.13;;;0.70;;
22711;SDS011;11523;50.390;8.072;2023-05-10T12:16:49;3.05;;;0.60;;
22711;SDS011;11523;50.390;8.072;2023-05-10T12:19:19;0.73;;;0.60;;
22711;SDS011;11523;50.390;8.072;2023-05-10T12:21:46;2.63;;;0.80;;
22711;SDS011;11523;50.390;8.072;2023-05-10T12:24:12;1.15;;;0.68;;
22711;SDS011;11523;50.390;8.072;2023-05-10T12:26:41;0.50;;;0.50;;
22711;SDS011;11523;50.390;8.072;2023-05-10T12:29:19;5.65;;;0.70;;
22711;SDS011;11523;50.390;8.072;2023-05-10T12:31:49;1.92;;;0.80;;
22711;SDS011;11523;50.390;8.072;2023-05-10T12:34:34;4.07;;;0.80;;
22711;SDS011;11523;50.390;8.072;2023-05-10T12:37:01;1.90;;;0.55;;
22711;SDS011;11523;50.390;8.072;2023-05-10T12:39:38;1.67;;;0.55;;
22711;SDS011;11523;50.390;8.072;2023-05-10T12:42:04;0.55;;;0.55;;
22711;SDS011;11523;50.390;8.072;2023-05-10T12:44:31;2.33;;;0.70;;
22711;SDS011;11523;50.390;8.072;2023-05-10T12:46:57;2.22;;;0.60;;
22711;SDS011;11523;50.390;8.072;2023-05-10T12:49:22;1.33;;;0.60;;
22711;SDS011;11523;50.390;8.072;2023-05-10T12:51:48;1.83;;;0.70;;
22711;SDS011;11523;50.390;8.072;2023-05-10T12:54:14;1.98;;;0.60;;
22711;SDS011;11523;50.390;8.072;2023-05-10T12:56:40;1.92;;;0.60;;
22711;SDS011;11523;50.390;8.072;2023-05-10T12:59:07;2.97;;;0.65;;
22711;SDS011;11523;50.390;8.072;2023-05-10T13:01:33;2.47;;;0.75;;
22711;SDS011;11523;50.390;8.072;2023-05-10T13:03:59;9.50;;;1.38;;
22711;SDS011;11523;50.390;8.072;2023-05-10T13:06:25;2.03;;;0.60;;
22711;SDS011;11523;50.390;8.072;2023-05-10T13:08:51;0.60;;;0.55;;
22711;SDS011;11523;50.390;8.072;2023-05-10T13:11:17;3.40;;;0.80;;
22711;SDS011;11523;50.390;8.072;2023-05-10T13:13:44;3.90;;;0.90;;
22711;SDS011;11523;50.390;8.072;2023-05-10T13:16:10;1.30;;;0.75;;
22711;SDS011;11523;50.390;8.072;2023-05-10T13:18:36;2.28;;;0.88;;
22711;SDS011;11523;50.390;8.072;2023-05-10T13:21:02;2.33;;;0.70;;
22711;SDS011;11523;50.390;8.072;2023-05-10T13:23:30;1.02;;;0.57;;
22711;SDS011;11523;50.390;8.072;2023-05-10T13:26:02;2.75;;;0.70;;
22711;SDS011;11523;50.390;8.072;2023-05-10T13:28:28;0.77;;;0.63;;
22711;SDS011;11523;50.390;8.072;2023-05-10T13:30:55;2.28;;;0.52;;
22711;SDS011;11523;50.390;8.072;2023-05-10T13:33:21;1.67;;;0.70;;
22711;SDS011;11523;50.390;8.072;2023-05-10T13:35:46;1.15;;;0.77;;
22711;SDS011;11523;50.390;8.072;2023-05-10T13:38:12;0.63;;;0.52;;
22711;SDS011;11523;50.390;8.072;2023-05-10T13:40:39;0.70;;;0.70;;
22711;SDS011;11523;50.390;8.072;2023-05-10T13:43:04;10.07;;;1.40;;
22711;SDS011;11523;50.390;8.072;2023-05-10T13:45:30;6.03;;;1.13;;
22711;SDS011;11523;50.390;8.072;2023-05-10T13:47:56;2.45;;;0.80;;
22711;SDS011;11523;50.390;8.072;2023-05-10T13:50:22;2.53;;;0.80;;
22711;SDS011;11523;50.390;8.072;2023-05-10T13:52:48;3.58;;;0.75;;
22711;SDS011;11523;50.390;8.072;2023-05-10T13:55:14;1.08;;;0.65;;
22711;SDS011;11523;50.390;8.072;2023-05-10T13:57:40;1.83;;;0.70;;
22711;SDS011;11523;50.390;8.072;2023-05-10T14:00:08;1.42;;;0.60;;
22711;SDS011;11523;50.390;8.072;2023-05-10T14:02:34;1.13;;;0.73;;
22711;SDS011;11523;50.390;8.072;2023-05-10T14:05:00;1.35;;;0.70;;
22711;SDS011;11523;50.390;8.072;2023-05-10T14:07:26;1.95;;;0.63;;
22711;SDS011;11523;50.390;8.072;2023-05-10T14:09:52;0.47;;;0.47;;
22711;SDS011;11523;50.390;8.072;2023-05-10T14:12:18;3.95;;;0.70;;
22711;SDS011;11523;50.390;8.072;2023-05-10T14:14:44;2.13;;;0.60;;
22711;SDS011;11523;50.390;8.072;2023-05-10T14:17:10;0.85;;;0.55;;
22711;SDS011;11523;50.390;8.072;2023-05-10T14:19:36;3.22;;;0.60;;
22711;SDS011;11523;50.390;8.072;2023-05-10T14:22:02;2.58;;;0.60;;
22711;SDS011;11523;50.390;8.072;2023-05-10T14:24:28;1.42;;;0.85;;
22711;SDS011;11523;50.390;8.072;2023-05-10T14:26:54;1.02;;;0.60;;
22711;SDS011;11523;50.390;8.072;2023-05-10T14:29:20;1.27;;;0.70;;
22711;SDS011;11523;50.390;8.072;2023-05-10T14:31:46;2.20;;;0.68;;
22711;SDS011;11523;50.390;8.072;2023-05-10T14:34:12;1.35;;;0.68;;
22711;SDS011;11523;50.390;8.072;2023-05-10T14:36:38;1.15;;;0.70;;
22711;SDS011;11523;50.390;8.072;2023-05-10T14:39:05;2.03;;;0.60;;
22711;SDS011;11523;50.390;8.072;2023-05-10T14:41:31;1.23;;;0.80;;
22711;SDS011;11523;50.390;8.072;2023-05-10T14:43:57;4.45;;;0.85;;
22711;SDS011;11523;50.390;8.072;2023-05-10T14:46:30;1.95;;;0.95;;
22711;SDS011;11523;50.390;8.072;2023-05-10T14:48:56;0.90;;;0.68;;
22711;SDS011;11523;50.390;8.072;2023-05-10T14:51:22;0.70;;;0.70;;
22711;SDS011;11523;50.390;8.072;2023-05-10T14:53:48;1.02;;;0.60;;
22711;SDS011;11523;50.390;8.072;2023-05-10T14:56:14;3.28;;;1.02;;
22711;SDS011;11523;50.390;8.072;2023-05-10T14:58:40;2.40;;;0.65;;
22711;SDS011;11523;50.390;8.072;2023-05-10T15:01:06;2.25;;;0.82;;
22711;SDS011;11523;50.390;8.072;2023-05-10T15:03:32;2.42;;;0.88;;
22711;SDS011;11523;50.390;8.072;2023-05-10T15:05:58;1.67;;;0.70;;
22711;SDS011;11523;50.390;8.072;2023-05-10T15:08:24;1.95;;;0.98;;
22711;SDS011;11523;50.390;8.072;2023-05-10T15:10:50;0.85;;;0.75;;
22711;SDS011;11523;50.390;8.072;2023-05-10T15:13:16;3.25;;;0.90;;
22711;SDS011;11523;50.390;8.072;2023-05-10T15:15:42;1.15;;;0.88;;
22711;SDS011;11523;50.390;8.072;2023-05-10T15:18:08;1.60;;;0.80;;
22711;SDS011;11523;50.390;8.072;2023-05-10T15:20:35;2.47;;;0.70;;